createdAt,value
2023-01-22T00:00:09.086Z,26.7020
2023-01-22T00:00:20.635Z,26.7020
2023-01-22T00:00:31.838Z,26.7180
2023-01-22T00:00:43.010Z,26.7070
2023-01-22T00:00:54.212Z,26.7020
2023-01-22T00:01:05.427Z,26.7020
2023-01-22T00:01:16.610Z,26.7060
2023-01-22T00:01:27.675Z,26.7000
2023-01-22T00:01:38.760Z,26.6840
2023-01-22T00:01:49.883Z,26.6840
2023-01-22T00:02:01.100Z,26.6960
2023-01-22T00:02:12.198Z,26.6960
2023-01-22T00:02:23.290Z,26.6900
2023-01-22T00:02:34.353Z,26.6850
2023-01-22T00:02:45.653Z,26.6850
2023-01-22T00:02:56.760Z,26.6900
2023-01-22T00:03:07.979Z,26.6890
2023-01-22T00:03:19.181Z,26.6850
2023-01-22T00:03:30.227Z,26.6850
2023-01-22T00:03:41.378Z,26.7020
2023-01-22T00:03:52.622Z,26.7340
2023-01-22T00:04:03.737Z,26.7430
2023-01-22T00:04:14.840Z,26.7590
2023-01-22T00:04:26.041Z,26.7540
2023-01-22T00:04:37.267Z,26.7640
2023-01-22T00:04:48.500Z,26.7840
2023-01-22T00:04:59.651Z,26.8010
2023-01-22T00:05:10.842Z,26.8060
2023-01-22T00:05:22.053Z,26.8130
2023-01-22T00:05:33.245Z,26.7920
2023-01-22T00:05:44.449Z,26.7860
2023-01-22T00:05:55.662Z,26.7970
2023-01-22T00:06:06.699Z,26.8020
2023-01-22T00:06:17.750Z,26.8050
2023-01-22T00:06:28.943Z,26.7670
2023-01-22T00:06:40.000Z,26.7610
2023-01-22T00:06:51.060Z,26.7730
2023-01-22T00:07:02.122Z,26.7730
2023-01-22T00:07:13.181Z,26.7730
2023-01-22T00:07:24.290Z,26.7730
2023-01-22T00:07:35.494Z,26.7780
2023-01-22T00:07:46.583Z,26.7990
2023-01-22T00:07:57.663Z,26.7890
2023-01-22T00:08:08.781Z,26.8050
2023-01-22T00:08:19.972Z,26.8150
2023-01-22T00:08:31.184Z,26.8100
2023-01-22T00:08:42.360Z,26.7970
2023-01-22T00:08:53.559Z,26.8090
2023-01-22T00:09:04.701Z,26.8240
2023-01-22T00:09:15.781Z,26.8190
2023-01-22T00:09:26.839Z,26.8190
2023-01-22T00:09:37.890Z,26.8240
2023-01-22T00:09:49.051Z,26.8190
2023-01-22T00:10:00.400Z,26.8090
2023-01-22T00:10:11.590Z,26.8140
2023-01-22T00:10:22.653Z,26.8140
2023-01-22T00:10:33.730Z,26.7920
2023-01-22T00:10:44.920Z,26.7810
2023-01-22T00:10:55.988Z,26.7970
2023-01-22T00:11:07.081Z,26.7970
2023-01-22T00:11:18.129Z,26.8140
2023-01-22T00:11:29.211Z,26.8090
2023-01-22T00:11:40.303Z,26.8090
2023-01-22T00:11:51.479Z,26.8090
2023-01-22T00:12:02.529Z,26.8140
2023-01-22T00:12:13.601Z,26.8240
2023-01-22T00:12:24.771Z,26.8450
2023-01-22T00:12:35.810Z,26.8560
2023-01-22T00:12:46.852Z,26.8560
2023-01-22T00:12:58.049Z,26.8670
2023-01-22T00:13:09.109Z,26.8830
2023-01-22T00:13:20.178Z,26.8770
2023-01-22T00:13:31.324Z,26.8980
2023-01-22T00:13:42.520Z,26.8980
2023-01-22T00:13:54.444Z,26.8980
2023-01-22T00:14:05.533Z,26.9210
2023-01-22T00:14:16.617Z,26.9250
2023-01-22T00:14:27.694Z,26.9080
2023-01-22T00:14:38.842Z,26.8920
2023-01-22T00:14:50.070Z,26.9030
2023-01-22T00:15:01.241Z,26.8880
2023-01-22T00:15:12.456Z,26.8930
2023-01-22T00:15:23.651Z,26.8830
2023-01-22T00:15:34.883Z,26.8770
2023-01-22T00:15:46.091Z,26.8770
2023-01-22T00:15:57.176Z,26.8770
2023-01-22T00:16:08.327Z,26.8930
2023-01-22T00:16:19.457Z,26.8930
2023-01-22T00:16:30.529Z,26.8980
2023-01-22T00:16:41.720Z,26.9090
2023-01-22T00:16:52.929Z,26.9150
2023-01-22T00:17:04.120Z,26.9260
2023-01-22T00:17:15.170Z,26.9310
2023-01-22T00:17:26.211Z,26.9210
2023-01-22T00:17:37.413Z,26.9370
2023-01-22T00:17:48.603Z,26.9420
2023-01-22T00:17:59.642Z,26.9260
2023-01-22T00:18:10.690Z,26.9350
2023-01-22T00:18:21.762Z,26.9260
2023-01-22T00:18:32.848Z,26.9460
2023-01-22T00:18:43.973Z,26.9410
2023-01-22T00:18:55.166Z,26.9350
2023-01-22T00:19:06.204Z,26.9350
2023-01-22T00:19:17.312Z,26.9350
2023-01-22T00:19:28.360Z,26.9350
2023-01-22T00:19:39.412Z,26.9520
2023-01-22T00:19:50.657Z,26.9520
2023-01-22T00:20:01.771Z,26.9730
2023-01-22T00:20:12.929Z,26.9520
2023-01-22T00:20:24.130Z,26.9370
2023-01-22T00:20:35.205Z,26.9310
2023-01-22T00:20:46.251Z,26.9370
2023-01-22T00:20:57.412Z,26.9260
2023-01-22T00:21:08.602Z,26.9210
2023-01-22T00:21:19.809Z,26.9210
2023-01-22T00:21:30.858Z,26.9260
2023-01-22T00:21:41.899Z,26.9330
2023-01-22T00:21:53.082Z,26.9270
2023-01-22T00:22:04.301Z,26.9380
2023-01-22T00:22:15.486Z,26.9380
2023-01-22T00:22:26.530Z,26.9330
2023-01-22T00:22:37.580Z,26.9480
2023-01-22T00:22:48.648Z,26.9480
2023-01-22T00:22:59.712Z,26.9540
2023-01-22T00:23:10.842Z,26.9690
2023-01-22T00:23:21.907Z,26.9970
2023-01-22T00:23:32.940Z,27.0080
2023-01-22T00:23:44.125Z,27.0020
2023-01-22T00:23:55.160Z,27.0080
2023-01-22T00:24:06.211Z,27.0020
2023-01-22T00:24:17.410Z,26.9970
2023-01-22T00:24:28.450Z,26.9970
2023-01-22T00:24:39.493Z,27.0020
2023-01-22T00:24:50.689Z,27.0130
2023-01-22T00:25:01.859Z,27.0080
2023-01-22T00:25:13.083Z,27.0050
2023-01-22T00:25:24.151Z,27.0050
2023-01-22T00:25:35.208Z,27.0160
2023-01-22T00:25:46.357Z,27.0100
2023-01-22T00:25:57.560Z,27.0160
2023-01-22T00:26:08.599Z,27.0280
2023-01-22T00:26:19.650Z,27.0210
2023-01-22T00:26:30.720Z,27.0020
2023-01-22T00:26:41.791Z,27.0080
2023-01-22T00:26:52.934Z,27.0080
2023-01-22T00:27:04.137Z,27.0230
2023-01-22T00:27:15.173Z,27.0290
2023-01-22T00:27:26.217Z,27.0390
2023-01-22T00:27:37.411Z,27.0390
2023-01-22T00:27:48.602Z,27.0450
2023-01-22T00:27:59.802Z,27.0450
2023-01-22T00:28:10.841Z,27.0290
2023-01-22T00:28:21.877Z,27.0340
2023-01-22T00:28:33.084Z,27.0330
2023-01-22T00:28:44.290Z,27.0230
2023-01-22T00:28:55.488Z,27.0330
2023-01-22T00:29:06.697Z,27.0290
2023-01-22T00:29:17.900Z,27.0450
2023-01-22T00:29:28.918Z,27.0500
2023-01-22T00:29:39.960Z,27.0590
2023-01-22T00:29:51.170Z,27.0640
2023-01-22T00:30:02.379Z,27.0700
2023-01-22T00:30:13.570Z,27.0750
2023-01-22T00:30:24.759Z,27.0800
2023-01-22T00:30:35.960Z,27.0750
2023-01-22T00:30:47.104Z,27.0700
2023-01-22T00:30:58.265Z,27.0640
2023-01-22T00:31:09.442Z,27.0800
2023-01-22T00:31:20.673Z,27.0750
2023-01-22T00:31:31.893Z,27.0800
2023-01-22T00:31:43.410Z,27.0860
2023-01-22T00:31:54.819Z,27.0950
2023-01-22T00:32:06.127Z,27.1000
2023-01-22T00:32:17.399Z,27.1060
2023-01-22T00:32:28.483Z,27.1000
2023-01-22T00:32:39.540Z,27.1110
2023-01-22T00:32:50.686Z,27.0950
2023-01-22T00:33:01.895Z,27.0640
2023-01-22T00:33:13.086Z,27.0640
2023-01-22T00:33:24.120Z,27.0640
2023-01-22T00:33:35.181Z,27.0700
2023-01-22T00:33:46.372Z,27.0640
2023-01-22T00:33:57.567Z,27.0800
2023-01-22T00:34:08.770Z,27.0800
2023-01-22T00:34:19.965Z,27.0800
2023-01-22T00:34:31.019Z,27.0700
2023-01-22T00:34:42.080Z,27.0800
2023-01-22T00:34:53.240Z,27.0700
2023-01-22T00:35:04.480Z,27.0700
2023-01-22T00:35:15.641Z,27.0910
2023-01-22T00:35:26.841Z,27.1010
2023-01-22T00:35:38.050Z,27.0960
2023-01-22T00:35:49.251Z,27.0860
2023-01-22T00:36:00.463Z,27.0860
2023-01-22T00:36:11.639Z,27.0860
2023-01-22T00:36:22.859Z,27.0750
2023-01-22T00:36:33.898Z,27.0640
2023-01-22T00:36:44.933Z,27.0700
2023-01-22T00:36:56.288Z,27.1010
2023-01-22T00:37:07.322Z,27.0800
2023-01-22T00:37:18.522Z,27.0750
2023-01-22T00:37:29.721Z,27.0700
2023-01-22T00:37:40.782Z,27.0960
2023-01-22T00:37:51.816Z,27.1070
2023-01-22T00:38:03.001Z,27.1170
2023-01-22T00:38:14.211Z,27.1230
2023-01-22T00:38:25.415Z,27.1230
2023-01-22T00:38:36.610Z,27.1400
2023-01-22T00:38:47.680Z,27.1500
2023-01-22T00:38:58.769Z,27.1500
2023-01-22T00:39:09.880Z,27.1400
2023-01-22T00:39:21.093Z,27.1230
2023-01-22T00:39:32.980Z,27.1340
2023-01-22T00:39:44.035Z,27.1500
2023-01-22T00:39:55.106Z,27.1500
2023-01-22T00:40:06.243Z,27.1340
2023-01-22T00:40:17.823Z,27.1170
2023-01-22T00:40:29.372Z,27.1340
2023-01-22T00:40:40.370Z,27.1400
2023-01-22T00:40:51.429Z,27.1280
2023-01-22T00:41:02.539Z,27.1450
2023-01-22T00:41:13.723Z,27.1610
2023-01-22T00:41:24.923Z,27.1820
2023-01-22T00:41:36.132Z,27.1770
2023-01-22T00:41:47.169Z,27.1610
2023-01-22T00:41:58.224Z,27.1610
2023-01-22T00:42:09.404Z,27.1610
2023-01-22T00:42:20.453Z,27.1660
2023-01-22T00:42:31.496Z,27.1660
2023-01-22T00:42:42.683Z,27.1710
2023-01-22T00:42:53.734Z,27.1710
2023-01-22T00:43:04.800Z,27.1610
2023-01-22T00:43:15.966Z,27.1700
2023-01-22T00:43:27.166Z,27.1650
2023-01-22T00:43:38.372Z,27.1650
2023-01-22T00:43:51.820Z,27.1860
2023-01-22T00:44:04.007Z,27.2510
2023-01-22T00:44:15.188Z,27.2270
2023-01-22T00:44:26.367Z,27.2070
2023-01-22T00:44:37.572Z,27.1910
2023-01-22T00:44:48.765Z,27.1700
2023-01-22T00:44:59.969Z,27.1810
2023-01-22T00:45:11.190Z,27.1700
2023-01-22T00:45:22.240Z,27.1500
2023-01-22T00:45:33.391Z,27.1340
2023-01-22T00:45:44.450Z,27.1450
2023-01-22T00:45:55.668Z,27.1230
2023-01-22T00:46:06.750Z,27.1450
2023-01-22T00:46:17.952Z,27.1560
2023-01-22T00:46:29.056Z,27.1450
2023-01-22T00:46:40.207Z,27.1560
2023-01-22T00:46:51.401Z,27.1610
2023-01-22T00:47:02.539Z,27.1770
2023-01-22T00:47:13.560Z,27.1710
2023-01-22T00:47:24.619Z,27.1660
2023-01-22T00:47:35.801Z,27.1610
2023-01-22T00:47:47.011Z,27.1610
2023-01-22T00:47:58.228Z,27.1560
2023-01-22T00:48:09.400Z,27.1610
2023-01-22T00:48:20.450Z,27.1560
2023-01-22T00:48:31.499Z,27.1660
2023-01-22T00:48:42.700Z,27.1610
2023-01-22T00:48:53.882Z,27.1730
2023-01-22T00:49:05.083Z,27.1820
2023-01-22T00:49:16.277Z,27.1710
2023-01-22T00:49:27.386Z,27.1770
2023-01-22T00:49:38.450Z,27.1560
2023-01-22T00:49:49.570Z,27.1500
2023-01-22T00:50:00.779Z,27.1520
2023-01-22T00:50:12.025Z,27.1570
2023-01-22T00:50:23.173Z,27.1660
2023-01-22T00:50:34.370Z,27.1660
2023-01-22T00:50:45.709Z,27.1820
2023-01-22T00:50:57.201Z,27.1920
2023-01-22T00:51:08.346Z,27.2140
2023-01-22T00:51:19.531Z,27.2080
2023-01-22T00:51:30.681Z,27.2080
2023-01-22T00:51:41.880Z,27.2080
2023-01-22T00:51:53.095Z,27.1920
2023-01-22T00:52:04.281Z,27.1920
2023-01-22T00:52:15.340Z,27.1820
2023-01-22T00:52:26.400Z,27.1820
2023-01-22T00:52:37.522Z,27.1820
2023-01-22T00:52:48.589Z,27.1770
2023-01-22T00:52:59.661Z,27.1660
2023-01-22T00:53:10.729Z,27.1610
2023-01-22T00:53:21.792Z,27.1730
2023-01-22T00:53:32.923Z,27.1730
2023-01-22T00:53:44.008Z,27.1670
2023-01-22T00:53:55.037Z,27.1780
2023-01-22T00:54:06.218Z,27.1940
2023-01-22T00:54:17.250Z,27.1880
2023-01-22T00:54:28.304Z,27.1990
2023-01-22T00:54:39.500Z,27.1880
2023-01-22T00:54:50.594Z,27.1990
2023-01-22T00:55:01.712Z,27.1830
2023-01-22T00:55:12.818Z,27.1780
2023-01-22T00:55:23.960Z,27.1620
2023-01-22T00:55:35.023Z,27.1780
2023-01-22T00:55:46.083Z,27.1780
2023-01-22T00:55:57.149Z,27.1830
2023-01-22T00:56:08.227Z,27.1940
2023-01-22T00:56:19.325Z,27.2110
2023-01-22T00:56:30.360Z,27.2030
2023-01-22T00:56:41.410Z,27.2140
2023-01-22T00:56:52.600Z,27.2080
2023-01-22T00:57:03.670Z,27.2140
2023-01-22T00:57:15.002Z,27.2080
2023-01-22T00:57:26.214Z,27.2140
2023-01-22T00:57:37.411Z,27.2140
2023-01-22T00:57:48.602Z,27.2080
2023-01-22T00:57:59.809Z,27.1870
2023-01-22T00:58:11.000Z,27.2160
2023-01-22T00:58:22.214Z,27.2110
2023-01-22T00:58:33.272Z,27.2210
2023-01-22T00:58:44.360Z,27.1980
2023-01-22T00:58:57.746Z,27.2030
2023-01-22T00:59:10.565Z,27.2570
2023-01-22T00:59:21.719Z,27.2770
2023-01-22T00:59:32.919Z,27.2560
2023-01-22T00:59:44.123Z,27.2520
2023-01-22T00:59:55.330Z,27.2470
2023-01-22T01:00:06.527Z,27.2350
2023-01-22T01:00:18.068Z,27.2470
2023-01-22T01:00:29.738Z,27.2620
2023-01-22T01:00:40.801Z,27.2470
2023-01-22T01:00:52.067Z,27.2400
2023-01-22T01:01:08.421Z,27.2400
2023-01-22T01:01:20.102Z,27.3460
2023-01-22T01:01:31.323Z,27.3390
2023-01-22T01:01:42.411Z,27.3140
2023-01-22T01:01:53.554Z,27.2930
2023-01-22T01:02:04.670Z,27.2570
2023-01-22T01:02:15.834Z,27.2400
2023-01-22T01:02:27.001Z,27.2290
2023-01-22T01:02:38.210Z,27.2190
2023-01-22T01:02:49.401Z,27.1980
2023-01-22T01:03:00.616Z,27.2030
2023-01-22T01:03:11.800Z,27.2080
2023-01-22T01:03:22.842Z,27.2140
2023-01-22T01:03:33.901Z,27.2290
2023-01-22T01:03:45.081Z,27.2400
2023-01-22T01:03:56.279Z,27.2470
2023-01-22T01:04:07.330Z,27.2520
2023-01-22T01:04:18.375Z,27.2350
2023-01-22T01:04:29.419Z,27.2520
2023-01-22T01:04:40.482Z,27.2470
2023-01-22T01:04:51.641Z,27.2320
2023-01-22T01:05:02.830Z,27.2320
2023-01-22T01:05:14.047Z,27.2210
2023-01-22T01:05:25.288Z,27.2210
2023-01-22T01:05:36.325Z,27.2470
2023-01-22T01:05:47.390Z,27.2470
2023-01-22T01:05:58.530Z,27.2350
2023-01-22T01:06:09.749Z,27.2400
2023-01-22T01:06:20.809Z,27.2400
2023-01-22T01:06:31.861Z,27.2400
2023-01-22T01:06:42.920Z,27.2520
2023-01-22T01:06:53.991Z,27.2620
2023-01-22T01:07:05.082Z,27.2520
2023-01-22T01:07:16.284Z,27.2570
2023-01-22T01:07:27.494Z,27.2620
2023-01-22T01:07:38.690Z,27.2780
2023-01-22T01:07:49.738Z,27.2780
2023-01-22T01:08:00.772Z,27.2680
2023-01-22T01:08:11.960Z,27.2730
2023-01-22T01:08:23.082Z,27.2730
2023-01-22T01:08:34.148Z,27.2730
2023-01-22T01:08:45.246Z,27.2640
2023-01-22T01:08:56.298Z,27.2520
2023-01-22T01:09:07.348Z,27.2370
2023-01-22T01:09:18.521Z,27.2480
2023-01-22T01:09:29.733Z,27.2480
2023-01-22T01:09:40.920Z,27.2430
2023-01-22T01:09:52.120Z,27.2430
2023-01-22T01:10:03.183Z,27.2430
2023-01-22T01:10:14.241Z,27.2430
2023-01-22T01:10:25.429Z,27.2430
2023-01-22T01:10:36.487Z,27.2320
2023-01-22T01:10:47.543Z,27.2480
2023-01-22T01:10:58.685Z,27.2480
2023-01-22T01:11:10.251Z,27.2590
2023-01-22T01:11:21.402Z,27.2690
2023-01-22T01:11:32.614Z,27.2690
2023-01-22T01:11:43.818Z,27.2640
2023-01-22T01:11:54.840Z,27.2740
2023-01-22T01:12:05.890Z,27.2640
2023-01-22T01:12:17.090Z,27.2690
2023-01-22T01:12:28.801Z,27.2690
2023-01-22T01:12:39.856Z,27.2800
2023-01-22T01:12:50.895Z,27.2740
2023-01-22T01:13:01.951Z,27.2690
2023-01-22T01:13:13.083Z,27.2740
2023-01-22T01:13:24.289Z,27.2800
2023-01-22T01:13:35.480Z,27.2900
2023-01-22T01:13:46.705Z,27.3120
2023-01-22T01:13:57.766Z,27.3180
2023-01-22T01:14:08.831Z,27.3230
2023-01-22T01:14:19.889Z,27.3230
2023-01-22T01:14:30.950Z,27.3010
2023-01-22T01:14:42.040Z,27.3000
2023-01-22T01:14:53.251Z,27.3000
2023-01-22T01:15:04.452Z,27.2940
2023-01-22T01:15:15.664Z,27.2940
2023-01-22T01:15:26.719Z,27.3000
2023-01-22T01:15:37.770Z,27.2800
2023-01-22T01:15:49.112Z,27.2740
2023-01-22T01:16:00.243Z,27.2640
2023-01-22T01:16:11.384Z,27.2640
2023-01-22T01:16:22.590Z,27.2690
2023-01-22T01:16:33.721Z,27.2740
2023-01-22T01:16:44.941Z,27.2850
2023-01-22T01:16:58.392Z,27.2840
2023-01-22T01:17:09.937Z,27.3260
2023-01-22T01:17:21.028Z,27.3090
2023-01-22T01:17:32.103Z,27.2780
2023-01-22T01:17:43.175Z,27.2780
2023-01-22T01:17:54.361Z,27.2730
2023-01-22T01:18:05.409Z,27.2890
2023-01-22T01:18:16.481Z,27.2960
2023-01-22T01:18:27.642Z,27.2840
2023-01-22T01:18:38.856Z,27.2800
2023-01-22T01:18:49.895Z,27.2840
2023-01-22T01:19:00.936Z,27.2780
2023-01-22T01:19:11.971Z,27.2680
2023-01-22T01:19:23.040Z,27.2570
2023-01-22T01:19:34.206Z,27.2470
2023-01-22T01:19:45.427Z,27.2470
2023-01-22T01:19:56.597Z,27.2520
2023-01-22T01:20:07.804Z,27.2570
2023-01-22T01:20:19.228Z,27.2690
2023-01-22T01:20:30.613Z,27.2900
2023-01-22T01:20:41.719Z,27.2690
2023-01-22T01:20:52.789Z,27.2800
2023-01-22T01:21:03.861Z,27.2640
2023-01-22T01:21:14.916Z,27.2640
2023-01-22T01:21:26.475Z,27.2690
2023-01-22T01:21:37.539Z,27.2900
2023-01-22T01:21:48.601Z,27.3010
2023-01-22T01:21:59.648Z,27.3010
2023-01-22T01:22:10.680Z,27.3060
2023-01-22T01:22:21.750Z,27.2840
2023-01-22T01:22:32.822Z,27.2680
2023-01-22T01:22:43.973Z,27.2780
2023-01-22T01:22:55.159Z,27.2890
2023-01-22T01:23:06.362Z,27.2730
2023-01-22T01:23:17.581Z,27.2680
2023-01-22T01:23:28.777Z,27.2680
2023-01-22T01:23:39.970Z,27.2620
2023-01-22T01:23:51.023Z,27.2620
2023-01-22T01:24:02.080Z,27.2570
2023-01-22T01:24:13.240Z,27.2570
2023-01-22T01:24:24.280Z,27.2850
2023-01-22T01:24:35.332Z,27.2800
2023-01-22T01:24:46.519Z,27.2640
2023-01-22T01:24:57.739Z,27.2690
2023-01-22T01:25:08.930Z,27.2800
2023-01-22T01:25:19.974Z,27.2850
2023-01-22T01:25:31.130Z,27.2740
2023-01-22T01:25:42.217Z,27.2800
2023-01-22T01:25:53.427Z,27.2850
2023-01-22T01:26:04.607Z,27.3000
2023-01-22T01:26:15.880Z,27.3050
2023-01-22T01:26:27.068Z,27.3050
2023-01-22T01:26:38.210Z,27.3260
2023-01-22T01:26:49.402Z,27.3150
2023-01-22T01:27:00.453Z,27.3210
2023-01-22T01:27:11.519Z,27.3100
2023-01-22T01:27:22.681Z,27.3050
2023-01-22T01:27:33.866Z,27.3150
2023-01-22T01:27:44.881Z,27.3050
2023-01-22T01:27:55.970Z,27.3150
2023-01-22T01:28:07.173Z,27.2940
2023-01-22T01:28:18.360Z,27.3000
2023-01-22T01:28:29.563Z,27.3150
2023-01-22T01:28:40.646Z,27.2940
2023-01-22T01:28:51.703Z,27.2940
2023-01-22T01:29:02.839Z,27.2890
2023-01-22T01:29:14.054Z,27.2840
2023-01-22T01:29:25.241Z,27.2890
2023-01-22T01:29:36.461Z,27.2890
2023-01-22T01:29:47.643Z,27.2890
2023-01-22T01:29:58.852Z,27.2780
2023-01-22T01:30:10.043Z,27.2780
2023-01-22T01:30:21.081Z,27.2890
2023-01-22T01:30:32.182Z,27.2890
2023-01-22T01:30:43.260Z,27.2900
2023-01-22T01:30:54.385Z,27.3060
2023-01-22T01:31:05.598Z,27.3010
2023-01-22T01:31:16.868Z,27.3290
2023-01-22T01:31:28.329Z,27.3260
2023-01-22T01:31:39.751Z,27.3310
2023-01-22T01:31:50.925Z,27.3420
2023-01-22T01:32:02.139Z,27.3310
2023-01-22T01:32:13.252Z,27.3310
2023-01-22T01:32:24.441Z,27.3310
2023-01-22T01:32:35.657Z,27.3050
2023-01-22T01:32:46.848Z,27.3000
2023-01-22T01:32:58.050Z,27.3000
2023-01-22T01:33:09.245Z,27.3050
2023-01-22T01:33:20.455Z,27.3000
2023-01-22T01:33:31.642Z,27.2890
2023-01-22T01:33:42.683Z,27.3050
2023-01-22T01:33:53.761Z,27.3050
2023-01-22T01:34:04.932Z,27.2940
2023-01-22T01:34:16.130Z,27.3150
2023-01-22T01:34:27.159Z,27.3050
2023-01-22T01:34:38.211Z,27.3000
2023-01-22T01:34:49.279Z,27.2840
2023-01-22T01:35:00.391Z,27.2900
2023-01-22T01:35:11.442Z,27.2800
2023-01-22T01:35:24.274Z,27.2850
2023-01-22T01:35:35.538Z,27.3260
2023-01-22T01:35:46.680Z,27.3050
2023-01-22T01:35:57.891Z,27.3000
2023-01-22T01:36:09.092Z,27.2940
2023-01-22T01:36:35.373Z,27.2900
2023-01-22T01:36:49.895Z,27.3910
2023-01-22T01:36:54.198Z,27.4790
2023-01-22T01:37:05.400Z,27.4310
2023-01-22T01:37:16.610Z,27.3940
2023-01-22T01:37:27.811Z,27.3580
2023-01-22T01:37:39.023Z,27.3300
2023-01-22T01:37:50.213Z,27.3350
2023-01-22T01:38:01.327Z,27.3210
2023-01-22T01:38:12.399Z,27.3210
2023-01-22T01:38:23.489Z,27.3150
2023-01-22T01:38:34.549Z,27.3370
2023-01-22T01:38:45.590Z,27.3370
2023-01-22T01:38:56.776Z,27.3420
2023-01-22T01:39:07.828Z,27.3470
2023-01-22T01:39:18.858Z,27.3340
2023-01-22T01:39:30.050Z,27.3470
2023-01-22T01:39:41.111Z,27.3370
2023-01-22T01:39:52.175Z,27.3540
2023-01-22T01:40:03.222Z,27.3310
2023-01-22T01:40:14.280Z,27.3470
2023-01-22T01:40:25.405Z,27.3370
2023-01-22T01:40:36.619Z,27.3370
2023-01-22T01:40:47.800Z,27.3420
2023-01-22T01:40:59.002Z,27.3470
2023-01-22T01:41:10.200Z,27.3420
2023-01-22T01:41:21.241Z,27.3420
2023-01-22T01:41:32.290Z,27.3440
2023-01-22T01:41:43.485Z,27.3390
2023-01-22T01:41:54.537Z,27.3120
2023-01-22T01:42:05.601Z,27.3180
2023-01-22T01:42:16.763Z,27.3180
2023-01-22T01:42:27.969Z,27.3340
2023-01-22T01:42:39.308Z,27.3230
2023-01-22T01:42:50.360Z,27.3230
2023-01-22T01:43:01.402Z,27.3260
2023-01-22T01:43:12.451Z,27.3210
2023-01-22T01:43:23.494Z,27.3230
2023-01-22T01:43:34.578Z,27.3120
2023-01-22T01:43:45.720Z,27.2900
2023-01-22T01:43:56.934Z,27.3010
2023-01-22T01:44:08.032Z,27.3100
2023-01-22T01:44:19.070Z,27.3180
2023-01-22T01:44:30.224Z,27.3060
2023-01-22T01:44:41.404Z,27.3060
2023-01-22T01:44:52.606Z,27.3060
2023-01-22T01:45:03.810Z,27.2890
2023-01-22T01:45:14.870Z,27.2940
2023-01-22T01:45:25.977Z,27.2850
2023-01-22T01:45:37.124Z,27.2960
2023-01-22T01:45:48.292Z,27.2960
2023-01-22T01:45:59.482Z,27.3060
2023-01-22T01:46:10.541Z,27.2960
2023-01-22T01:46:21.636Z,27.2960
2023-01-22T01:46:32.825Z,27.2900
2023-01-22T01:46:43.993Z,27.2960
2023-01-22T01:46:55.207Z,27.3010
2023-01-22T01:47:06.358Z,27.3060
2023-01-22T01:47:17.560Z,27.3290
2023-01-22T01:47:28.766Z,27.3230
2023-01-22T01:47:39.970Z,27.3060
2023-01-22T01:47:51.010Z,27.2960
2023-01-22T01:48:02.112Z,27.2960
2023-01-22T01:48:13.257Z,27.3010
2023-01-22T01:48:24.290Z,27.2960
2023-01-22T01:48:35.362Z,27.3060
2023-01-22T01:48:46.535Z,27.3060
2023-01-22T01:48:57.568Z,27.3010
2023-01-22T01:49:08.613Z,27.3060
2023-01-22T01:49:19.800Z,27.3060
2023-01-22T01:49:30.880Z,27.3180
2023-01-22T01:49:41.947Z,27.3180
2023-01-22T01:49:53.079Z,27.2960
2023-01-22T01:50:04.280Z,27.3010
2023-01-22T01:50:15.693Z,27.3230
2023-01-22T01:50:27.032Z,27.3440
2023-01-22T01:50:38.239Z,27.3290
2023-01-22T01:50:49.433Z,27.3390
2023-01-22T01:51:00.656Z,27.3340
2023-01-22T01:51:11.866Z,27.3440
2023-01-22T01:51:23.127Z,27.3340
2023-01-22T01:51:34.204Z,27.3440
2023-01-22T01:51:45.436Z,27.3340
2023-01-22T01:51:56.599Z,27.3440
2023-01-22T01:52:07.804Z,27.3440
2023-01-22T01:52:19.002Z,27.3390
2023-01-22T01:52:30.200Z,27.3260
2023-01-22T01:52:41.250Z,27.3310
2023-01-22T01:52:52.300Z,27.3260
2023-01-22T01:53:03.487Z,27.3290
2023-01-22T01:53:14.685Z,27.3230
2023-01-22T01:53:25.887Z,27.3230
2023-01-22T01:53:37.096Z,27.3060
2023-01-22T01:53:48.287Z,27.3180
2023-01-22T01:53:59.500Z,27.3290
2023-01-22T01:54:10.687Z,27.3340
2023-01-22T01:54:21.762Z,27.3340
2023-01-22T01:54:32.843Z,27.3260
2023-01-22T01:54:43.885Z,27.3060
2023-01-22T01:54:54.970Z,27.3010
2023-01-22T01:55:06.049Z,27.2900
2023-01-22T01:55:17.091Z,27.2960
2023-01-22T01:55:28.177Z,27.3010
2023-01-22T01:55:39.360Z,27.3010
2023-01-22T01:55:50.402Z,27.3120
2023-01-22T01:56:01.494Z,27.3230
2023-01-22T01:56:12.618Z,27.3290
2023-01-22T01:56:23.800Z,27.3340
2023-01-22T01:56:35.015Z,27.3390
2023-01-22T01:56:46.210Z,27.3340
2023-01-22T01:56:57.407Z,27.3230
2023-01-22T01:57:08.608Z,27.3410
2023-01-22T01:57:19.813Z,27.3300
2023-01-22T01:57:31.006Z,27.3300
2023-01-22T01:57:42.334Z,27.3230
2023-01-22T01:57:53.402Z,27.3120
2023-01-22T01:58:04.617Z,27.3180
2023-01-22T01:58:15.806Z,27.3180
2023-01-22T01:58:26.871Z,27.3230
2023-01-22T01:58:37.930Z,27.3180
2023-01-22T01:58:49.089Z,27.3180
2023-01-22T01:59:00.158Z,27.3060
2023-01-22T01:59:11.219Z,27.3060
2023-01-22T01:59:22.370Z,27.3290
2023-01-22T01:59:33.715Z,27.3340
2023-01-22T01:59:44.766Z,27.3390
2023-01-22T01:59:55.959Z,27.3390
2023-01-22T02:00:07.011Z,27.3500
2023-01-22T02:00:18.543Z,27.3500
2023-01-22T02:00:29.946Z,27.3500
2023-01-22T02:00:41.188Z,27.3420
2023-01-22T02:00:52.345Z,27.3540
2023-01-22T02:01:03.444Z,27.3420
2023-01-22T02:01:14.470Z,27.3540
2023-01-22T02:01:25.561Z,27.3590
2023-01-22T02:01:36.614Z,27.3470
2023-01-22T02:01:47.818Z,27.3420
2023-01-22T02:01:58.868Z,27.3390
2023-01-22T02:02:10.008Z,27.3290
2023-01-22T02:02:21.156Z,27.3390
2023-01-22T02:02:32.220Z,27.3500
2023-01-22T02:02:43.287Z,27.3230
2023-01-22T02:02:54.346Z,27.3290
2023-01-22T02:03:05.408Z,27.3230
2023-01-22T02:03:16.442Z,27.3180
2023-01-22T02:03:27.505Z,27.3340
2023-01-22T02:03:38.690Z,27.3290
2023-01-22T02:03:49.752Z,27.3120
2023-01-22T02:04:00.830Z,27.3060
2023-01-22T02:04:11.978Z,27.2960
2023-01-22T02:04:23.040Z,27.2900
2023-01-22T02:04:34.108Z,27.2900
2023-01-22T02:04:45.250Z,27.2850
2023-01-22T02:04:56.440Z,27.2900
2023-01-22T02:05:07.528Z,27.3010
2023-01-22T02:05:18.626Z,27.3180
2023-01-22T02:05:29.682Z,27.3060
2023-01-22T02:05:40.745Z,27.3010
2023-01-22T02:05:51.858Z,27.3010
2023-01-22T02:06:03.002Z,27.3180
2023-01-22T02:06:14.200Z,27.3180
2023-01-22T02:06:25.412Z,27.3180
2023-01-22T02:06:36.450Z,27.3340
2023-01-22T02:06:47.497Z,27.3340
2023-01-22T02:06:58.686Z,27.3180
2023-01-22T02:07:09.744Z,27.3120
2023-01-22T02:07:20.811Z,27.3010
2023-01-22T02:07:31.963Z,27.3290
2023-01-22T02:07:43.011Z,27.3390
2023-01-22T02:07:54.065Z,27.3440
2023-01-22T02:08:05.247Z,27.3500
2023-01-22T02:08:16.449Z,27.3290
2023-01-22T02:08:27.504Z,27.3290
2023-01-22T02:08:38.530Z,27.3290
2023-01-22T02:08:49.589Z,27.3120
2023-01-22T02:09:00.690Z,27.3180
2023-01-22T02:09:11.727Z,27.3290
2023-01-22T02:09:22.813Z,27.3290
2023-01-22T02:09:33.887Z,27.3180
2023-01-22T02:09:45.093Z,27.3010
2023-01-22T02:09:56.130Z,27.2960
2023-01-22T02:10:07.171Z,27.2850
2023-01-22T02:10:18.700Z,27.2960
2023-01-22T02:10:29.930Z,27.3060
2023-01-22T02:10:41.095Z,27.3230
2023-01-22T02:10:52.161Z,27.3180
2023-01-22T02:11:03.251Z,27.3120
2023-01-22T02:11:14.374Z,27.3120
2023-01-22T02:11:25.441Z,27.3120
2023-01-22T02:11:36.504Z,27.3390
2023-01-22T02:11:47.643Z,27.3290
2023-01-22T02:11:58.693Z,27.3290
2023-01-22T02:12:09.731Z,27.3120
2023-01-22T02:12:20.926Z,27.3180
2023-01-22T02:12:32.031Z,27.3060
2023-01-22T02:12:43.123Z,27.3010
2023-01-22T02:12:54.331Z,27.3290
2023-01-22T02:13:05.363Z,27.3390
2023-01-22T02:13:16.421Z,27.3230
2023-01-22T02:13:27.487Z,27.3290
2023-01-22T02:13:38.531Z,27.3340
2023-01-22T02:13:51.396Z,27.3500
2023-01-22T02:14:02.683Z,27.3970
2023-01-22T02:14:13.891Z,27.3820
2023-01-22T02:14:25.081Z,27.3600
2023-01-22T02:14:36.133Z,27.3500
2023-01-22T02:14:47.201Z,27.3500
2023-01-22T02:14:58.240Z,27.3550
2023-01-22T02:15:09.300Z,27.3550
2023-01-22T02:15:20.352Z,27.3500